createdAt,value
2022-10-20T00:03:53.102Z,7.85
2022-10-20T00:11:58.342Z,8.30
2022-10-20T00:20:06.455Z,9.32
2022-10-20T00:28:12.000Z,10.88
2022-10-20T00:36:22.906Z,6.47
2022-10-20T00:44:54.142Z,6.78
2022-10-20T00:53:04.290Z,8.48
2022-10-20T01:01:09.870Z,7.93
2022-10-20T01:09:17.915Z,4.82
2022-10-20T01:17:32.385Z,6.70
2022-10-20T01:25:56.420Z,5.00
2022-10-20T01:34:12.728Z,6.05
2022-10-20T01:42:23.668Z,5.22
2022-10-20T01:50:32.468Z,6.18
2022-10-20T01:59:32.069Z,4.68
2022-10-20T02:07:40.779Z,3.95
2022-10-20T02:15:49.904Z,6.07
2022-10-20T02:24:03.708Z,5.60
2022-10-20T02:32:10.727Z,5.85
2022-10-20T02:40:19.036Z,5.22
2022-10-20T02:48:24.297Z,3.53
2022-10-20T02:56:32.210Z,5.75
2022-10-20T03:04:37.476Z,3.75
2022-10-20T03:12:45.335Z,7.40
2022-10-20T03:20:53.259Z,9.88
2022-10-20T03:29:01.241Z,4.97
2022-10-20T03:37:06.528Z,5.65
2022-10-20T03:45:17.750Z,6.72
2022-10-20T03:53:24.027Z,7.05
2022-10-20T04:01:35.195Z,8.18
2022-10-20T04:09:40.530Z,7.07
2022-10-20T04:17:48.534Z,7.13
2022-10-20T04:25:53.828Z,5.38
2022-10-20T04:34:01.680Z,5.35
2022-10-20T04:42:07.018Z,21.15
2022-10-20T04:50:17.102Z,9.07
2022-10-20T04:58:36.622Z,8.25
2022-10-20T05:06:45.174Z,10.52
2022-10-20T05:14:50.410Z,11.73
2022-10-20T05:22:58.780Z,7.57
2022-10-20T05:31:05.518Z,10.20
2022-10-20T05:39:14.369Z,8.30
2022-10-20T05:47:19.648Z,10.10
2022-10-20T05:55:27.665Z,7.68
2022-10-20T06:03:33.179Z,9.25
2022-10-20T06:11:41.898Z,8.85
2022-10-20T06:19:47.631Z,9.30
2022-10-20T06:27:55.544Z,5.85
2022-10-20T06:36:03.475Z,5.63
2022-10-20T06:44:11.381Z,4.90
2022-10-20T06:52:17.209Z,3.00
2022-10-20T07:00:25.261Z,3.63
2022-10-20T07:08:32.112Z,4.13
2022-10-20T07:16:40.061Z,5.30
2022-10-20T07:24:45.370Z,6.05
2022-10-20T07:32:54.431Z,5.78
2022-10-20T07:41:05.233Z,5.35
2022-10-20T07:57:38.423Z,4.10
2022-10-20T08:05:46.329Z,1.55
2022-10-20T08:13:51.683Z,2.88
2022-10-20T08:21:59.807Z,3.55
2022-10-20T08:30:22.903Z,4.18
2022-10-20T08:38:31.555Z,4.25
2022-10-20T08:46:39.360Z,3.05
2022-10-20T08:54:47.580Z,1.90
2022-10-20T09:02:54.502Z,4.65
2022-10-20T09:11:03.390Z,3.10
2022-10-20T09:19:16.821Z,4.05
2022-10-20T09:27:35.713Z,4.32
2022-10-20T09:35:43.463Z,5.22
2022-10-20T09:43:58.174Z,3.28
2022-10-20T09:52:04.796Z,2.13
2022-10-20T10:00:36.879Z,21.52
2022-10-20T10:08:48.327Z,3.25
2022-10-20T10:16:56.278Z,2.57
2022-10-20T10:25:03.679Z,3.97
2022-10-20T10:33:28.906Z,4.13
2022-10-20T10:41:55.286Z,2.80
2022-10-20T10:50:22.267Z,2.90
2022-10-20T10:58:43.037Z,4.60
2022-10-20T11:06:57.959Z,4.43
2022-10-20T11:15:18.472Z,5.10
2022-10-20T11:23:47.548Z,3.20
2022-10-20T11:31:59.236Z,7.82
2022-10-20T11:40:19.183Z,7.25
2022-10-20T11:48:29.754Z,2.40
2022-10-20T11:57:07.043Z,3.53
2022-10-20T12:05:41.567Z,5.10
2022-10-20T12:13:59.457Z,4.07
2022-10-20T12:22:06.925Z,3.53
2022-10-20T12:30:42.165Z,4.82
2022-10-20T12:38:52.988Z,3.40
2022-10-20T12:47:01.344Z,6.65
2022-10-20T12:55:17.958Z,4.07
2022-10-20T13:03:49.518Z,6.88
2022-10-20T13:12:04.518Z,2.85
2022-10-20T13:20:24.143Z,5.25
2022-10-20T13:28:34.146Z,4.35
2022-10-20T13:36:50.274Z,4.75
2022-10-20T13:45:09.323Z,2.90
2022-10-20T13:53:22.473Z,2.30
2022-10-20T14:01:31.510Z,3.28
2022-10-20T14:09:39.523Z,4.45
2022-10-20T14:17:58.908Z,7.80
2022-10-20T14:26:05.515Z,8.05
2022-10-20T14:34:23.777Z,3.85
2022-10-20T14:42:33.073Z,2.65
2022-10-20T14:50:41.904Z,4.15
2022-10-20T14:59:01.095Z,3.50
2022-10-20T15:07:15.608Z,8.20
2022-10-20T15:15:25.133Z,3.90
2022-10-20T15:23:33.903Z,4.68
2022-10-20T15:31:39.242Z,5.85
2022-10-20T15:39:47.431Z,4.13
2022-10-20T15:47:52.786Z,7.25
2022-10-20T15:56:00.668Z,7.97
2022-10-20T16:04:10.080Z,8.77
2022-10-20T16:12:18.316Z,18.33
2022-10-20T16:20:23.647Z,17.05
2022-10-20T16:28:33.819Z,12.23
2022-10-20T16:36:39.213Z,17.98
2022-10-20T16:44:47.672Z,13.98
2022-10-20T16:52:52.957Z,10.50
2022-10-20T17:01:06.557Z,14.82
2022-10-20T17:17:20.111Z,24.52
2022-10-20T17:25:25.643Z,23.77
2022-10-20T17:33:34.671Z,27.08
2022-10-20T17:41:42.979Z,37.42
2022-10-20T17:49:50.997Z,39.15
2022-10-20T17:57:56.267Z,36.83
2022-10-20T18:06:09.798Z,35.20
2022-10-20T18:14:15.236Z,38.72
2022-10-20T18:22:23.959Z,37.40
2022-10-20T18:30:29.508Z,29.55
2022-10-20T18:38:39.373Z,29.08
2022-10-20T18:46:46.203Z,35.00
2022-10-20T18:54:54.414Z,41.92
2022-10-20T19:03:01.630Z,40.47
2022-10-20T19:11:12.189Z,43.90
2022-10-20T19:19:18.429Z,43.72
2022-10-20T19:27:27.417Z,43.53
2022-10-20T19:35:33.019Z,47.53
2022-10-20T19:43:41.991Z,37.15
2022-10-20T19:51:47.448Z,32.95
2022-10-20T19:59:55.515Z,36.70
2022-10-20T20:08:00.838Z,33.13
2022-10-20T20:16:12.319Z,37.30
2022-10-20T20:24:17.927Z,40.40
2022-10-20T20:32:25.760Z,41.00
2022-10-20T20:40:31.078Z,34.72
2022-10-20T20:48:39.407Z,45.40
2022-10-20T20:56:45.745Z,38.15
2022-10-20T21:04:53.685Z,35.90
2022-10-20T21:12:59.015Z,38.25
2022-10-20T21:21:13.096Z,31.05
2022-10-20T21:29:18.589Z,32.97
2022-10-20T21:37:26.475Z,33.90
2022-10-20T21:45:31.771Z,30.27
2022-10-20T21:53:39.776Z,29.35
2022-10-20T22:01:45.048Z,27.88
2022-10-20T22:09:53.390Z,22.85
2022-10-20T22:17:58.663Z,28.42
2022-10-20T23:04:54.474Z,21.83
2022-10-20T23:12:59.721Z,19.80
2022-10-20T23:21:08.542Z,22.88
2022-10-20T23:29:13.836Z,23.88
2022-10-20T23:37:23.761Z,21.80
2022-10-20T23:45:30.112Z,28.05
2022-10-20T23:53:38.877Z,26.98
